Time;durP1;ratioP1;P1;durP2;ratioP2;P2;SDS_P1;SDS_P2;PMS_P1;PMS_P2;Temp;Humidity;BMP_temperature;BMP_pressure;BME280_temperature;BME280_humidity;BME280_pressure;Samples;Min_cycle;Max_cycle;Signal;HPM_P1;HPM_P2
2023/03/30 00:02:04;;;;;;;26.53;13.43;;;6.70;95.80;;;;;;5042976;28;20407;-68
2023/03/30 00:04:52;;;;;;;28.80;14.30;;;6.70;96.10;;;;;;5060163;28;20321;-70
2023/03/30 00:07:45;;;;;;;27.30;14.23;;;6.70;96.30;;;;;;5052444;28;20234;-65
2023/03/30 00:10:33;;;;;;;30.03;14.40;;;6.60;96.50;;;;;;5046987;28;20368;-66
2023/03/30 00:13:22;;;;;;;28.07;14.43;;;6.70;96.70;;;;;;5052232;28;20295;-68
2023/03/30 00:16:13;;;;;;;34.13;14.63;;;6.70;96.80;;;;;;5035481;28;20232;-68
2023/03/30 00:19:02;;;;;;;26.03;13.80;;;6.70;97.10;;;;;;5032526;28;22049;-68
2023/03/30 00:21:51;;;;;;;29.10;14.57;;;6.60;97.30;;;;;;5056509;28;20254;-68
2023/03/30 00:24:45;;;;;;;23.27;13.03;;;6.50;97.70;;;;;;5053021;28;20728;-67
2023/03/30 00:27:33;;;;;;;24.57;13.53;;;6.60;97.70;;;;;;5041465;28;20217;-68
2023/03/30 00:30:22;;;;;;;29.97;13.90;;;6.60;97.90;;;;;;5034849;28;20309;-68
2023/03/30 00:33:11;;;;;;;29.50;13.73;;;6.60;98.10;;;;;;5038622;28;20251;-67
2023/03/30 00:36:00;;;;;;;29.03;13.80;;;6.60;98.20;;;;;;5045746;28;20273;-68
2023/03/30 00:38:49;;;;;;;21.53;12.10;;;6.70;98.30;;;;;;5056486;28;20232;-68
2023/03/30 00:41:42;;;;;;;22.60;12.13;;;6.60;98.50;;;;;;5057681;28;20322;-68
2023/03/30 00:45:06;;;;;;;24.07;12.40;;;6.60;98.60;;;;;;5018694;28;20269;-68
2023/03/30 00:48:01;;;;;;;24.50;12.53;;;6.70;98.70;;;;;;5038330;28;20225;-68
2023/03/30 00:50:52;;;;;;;23.50;11.83;;;6.70;98.80;;;;;;5026504;28;20704;-70
2023/03/30 00:53:48;;;;;;;21.57;11.60;;;6.70;98.90;;;;;;5037934;28;20958;-70
2023/03/30 00:56:39;;;;;;;22.13;11.77;;;6.70;99.00;;;;;;5049836;28;20243;-68
2023/03/30 00:59:31;;;;;;;23.47;12.43;;;6.70;99.10;;;;;;5037990;28;20228;-70
2023/03/30 01:02:20;;;;;;;26.43;12.77;;;6.70;99.30;;;;;;5052826;28;20227;-68
2023/03/30 01:05:10;;;;;;;23.23;12.07;;;6.60;99.50;;;;;;5058710;28;20266;-68
2023/03/30 01:07:59;;;;;;;25.67;12.07;;;6.70;99.60;;;;;;5060038;28;20761;-68
2023/03/30 01:10:48;;;;;;;26.00;12.43;;;6.70;99.60;;;;;;5040921;28;20219;-68
2023/03/30 01:13:43;;;;;;;25.40;12.60;;;6.60;99.70;;;;;;5059562;28;20319;-67
2023/03/30 01:16:40;;;;;;;22.23;11.57;;;6.70;99.90;;;;;;5066207;28;20258;-68
2023/03/30 01:19:59;;;;;;;21.13;11.83;;;6.60;99.90;;;;;;5075059;28;20225;-66
2023/03/30 01:23:02;;;;;;;22.20;12.07;;;6.60;99.90;;;;;;5050395;28;20228;-64
2023/03/30 01:26:15;;;;;;;21.57;11.20;;;6.60;99.90;;;;;;5044902;28;20220;-63
2023/03/30 01:29:12;;;;;;;25.33;11.33;;;6.60;99.90;;;;;;5047338;28;20225;-65
2023/03/30 01:32:37;;;;;;;24.30;11.80;;;6.50;99.90;;;;;;5062565;28;23471;-67
2023/03/30 01:35:52;;;;;;;21.37;11.23;;;6.50;99.90;;;;;;5057930;28;20223;-64
2023/03/30 01:39:12;;;;;;;21.43;11.77;;;6.60;99.90;;;;;;5033427;28;20228;-67
2023/03/30 01:42:09;;;;;;;20.13;11.03;;;6.60;99.90;;;;;;5057011;28;20359;-67
2023/03/30 01:45:07;;;;;;;24.20;11.93;;;6.60;99.90;;;;;;5061306;28;20221;-66
2023/03/30 01:48:02;;;;;;;21.87;11.23;;;6.50;99.90;;;;;;5042636;28;20877;-66
2023/03/30 01:50:54;;;;;;;20.70;11.30;;;6.60;99.90;;;;;;5047853;28;20233;-69
2023/03/30 01:53:48;;;;;;;20.60;12.00;;;6.60;99.90;;;;;;5033847;28;20744;-70
2023/03/30 01:56:41;;;;;;;19.77;11.23;;;6.50;99.90;;;;;;5042750;28;20660;-66
2023/03/30 01:59:36;;;;;;;24.97;11.63;;;6.60;99.90;;;;;;5047809;28;20306;-68
2023/03/30 02:02:28;;;;;;;21.77;11.20;;;6.60;99.90;;;;;;5053631;28;20209;-66
2023/03/30 02:05:19;;;;;;;22.57;11.43;;;6.70;99.90;;;;;;5055898;28;20334;-66
2023/03/30 02:08:12;;;;;;;21.73;11.30;;;6.60;99.90;;;;;;5046459;28;21102;-64
2023/03/30 02:11:01;;;;;;;19.63;10.67;;;6.50;99.90;;;;;;5051472;28;20239;-65
2023/03/30 02:13:54;;;;;;;23.23;10.67;;;6.50;99.90;;;;;;5055366;28;20686;-66
2023/03/30 02:16:47;;;;;;;23.47;11.40;;;6.60;99.90;;;;;;5032829;28;20230;-68
2023/03/30 02:19:36;;;;;;;22.60;11.47;;;6.50;99.90;;;;;;5030475;28;20718;-66
2023/03/30 02:22:28;;;;;;;21.47;11.00;;;6.60;99.90;;;;;;5047718;28;20237;-67
2023/03/30 02:25:18;;;;;;;20.33;10.70;;;6.60;99.90;;;;;;5055783;28;20278;-66
2023/03/30 02:28:08;;;;;;;22.57;10.80;;;6.60;99.90;;;;;;5033079;28;20256;-66
2023/03/30 02:30:58;;;;;;;23.20;11.90;;;6.50;99.90;;;;;;5042014;28;20906;-67
2023/03/30 02:34:03;;;;;;;21.47;10.33;;;6.50;99.90;;;;;;5054277;28;20236;-68
2023/03/30 02:37:11;;;;;;;22.13;11.57;;;6.50;99.90;;;;;;5053724;28;20238;-68
2023/03/30 02:40:16;;;;;;;18.73;10.23;;;6.60;99.90;;;;;;5053858;28;20294;-67
2023/03/30 02:43:36;;;;;;;24.97;10.93;;;6.60;99.90;;;;;;5039955;28;20220;-68
2023/03/30 02:46:52;;;;;;;28.23;11.27;;;6.50;99.90;;;;;;5059980;28;20217;-66
2023/03/30 02:49:55;;;;;;;22.93;11.37;;;6.60;99.90;;;;;;5065287;28;20231;-66
2023/03/30 02:52:54;;;;;;;22.70;11.07;;;6.70;99.90;;;;;;5021653;28;20471;-64
2023/03/30 02:55:52;;;;;;;21.57;11.67;;;6.70;99.90;;;;;;5051131;28;20699;-67
2023/03/30 02:58:54;;;;;;;21.33;10.50;;;6.70;99.90;;;;;;5037311;28;20240;-67
2023/03/30 03:01:50;;;;;;;19.70;10.60;;;6.60;99.90;;;;;;5034405;28;20231;-67
2023/03/30 03:04:45;;;;;;;18.43;10.57;;;6.60;99.90;;;;;;5039186;28;20327;-68
2023/03/30 03:07:46;;;;;;;22.00;11.37;;;6.70;99.90;;;;;;5055844;28;20227;-71
2023/03/30 03:10:35;;;;;;;23.77;11.07;;;6.70;99.90;;;;;;5052483;28;20220;-66
2023/03/30 03:13:29;;;;;;;21.30;10.57;;;6.60;99.90;;;;;;5054540;28;20224;-65
2023/03/30 03:16:19;;;;;;;20.60;11.10;;;6.60;99.90;;;;;;5022861;28;20851;-66
2023/03/30 03:19:30;;;;;;;22.70;11.43;;;6.50;99.90;;;;;;5055203;28;20247;-67
2023/03/30 03:22:19;;;;;;;20.63;10.93;;;6.50;99.90;;;;;;5037331;28;20238;-67
2023/03/30 03:25:14;;;;;;;23.33;10.90;;;6.60;99.90;;;;;;5031721;28;20233;-68
2023/03/30 03:28:13;;;;;;;22.23;12.27;;;6.60;99.90;;;;;;5020665;28;20341;-66
2023/03/30 03:31:06;;;;;;;20.70;11.13;;;6.60;99.90;;;;;;5038569;28;20761;-66
2023/03/30 03:33:55;;;;;;;19.60;11.00;;;6.60;99.90;;;;;;5036054;28;20224;-64
2023/03/30 03:36:56;;;;;;;19.87;10.77;;;6.60;99.90;;;;;;5045064;28;20631;-65
2023/03/30 03:39:48;;;;;;;20.70;11.20;;;6.60;99.90;;;;;;5047905;28;20307;-66
2023/03/30 03:42:38;;;;;;;24.37;11.27;;;6.60;99.90;;;;;;5029552;28;20240;-66
2023/03/30 03:45:34;;;;;;;26.10;11.73;;;6.70;99.90;;;;;;5055235;28;20362;-66
2023/03/30 03:48:24;;;;;;;23.03;11.47;;;6.70;99.90;;;;;;5027262;28;20230;-68
2023/03/30 03:51:14;;;;;;;24.67;12.00;;;6.70;99.90;;;;;;5041331;28;20367;-66
2023/03/30 03:54:05;;;;;;;23.23;11.33;;;6.70;99.90;;;;;;5046719;28;20392;-66
2023/03/30 03:56:54;;;;;;;27.50;11.97;;;6.60;99.90;;;;;;5038859;28;20540;-68
2023/03/30 03:59:43;;;;;;;22.10;11.93;;;6.60;99.90;;;;;;5053381;28;20403;-68
2023/03/30 04:02:33;;;;;;;24.47;11.60;;;6.70;99.90;;;;;;5044377;28;20246;-67
2023/03/30 04:05:22;;;;;;;26.37;11.77;;;6.70;99.90;;;;;;5058340;28;20604;-66
2023/03/30 04:08:11;;;;;;;21.87;11.67;;;6.60;99.90;;;;;;5050878;28;20225;-67
2023/03/30 04:11:08;;;;;;;25.00;11.60;;;6.60;99.90;;;;;;5036915;28;20252;-67
2023/03/30 04:14:09;;;;;;;21.10;11.47;;;6.60;99.90;;;;;;5052645;28;21219;-68
2023/03/30 04:17:27;;;;;;;21.87;11.40;;;6.60;99.90;;;;;;5039872;28;20282;-68
2023/03/30 04:20:39;;;;;;;24.70;11.90;;;6.60;99.90;;;;;;5051891;28;20282;-67
2023/03/30 04:23:44;;;;;;;24.43;11.73;;;6.60;99.90;;;;;;5050124;28;20290;-67
2023/03/30 04:26:47;;;;;;;23.23;12.33;;;6.70;99.90;;;;;;5053616;28;20229;-68
2023/03/30 04:29:56;;;;;;;28.23;12.60;;;6.70;99.90;;;;;;5056410;28;20266;-67
2023/03/30 04:33:03;;;;;;;25.33;12.30;;;6.80;99.90;;;;;;5057057;28;20216;-67
2023/03/30 04:36:17;;;;;;;25.20;12.40;;;6.70;99.90;;;;;;5060026;28;20264;-66
2023/03/30 04:39:29;;;;;;;25.87;12.23;;;6.70;99.90;;;;;;5039027;28;20226;-67
2023/03/30 04:42:33;;;;;;;28.00;12.23;;;6.70;99.90;;;;;;5046102;28;20576;-66
2023/03/30 04:45:55;;;;;;;22.13;12.10;;;6.70;99.90;;;;;;5038305;28;20215;-68
2023/03/30 04:49:03;;;;;;;27.87;12.43;;;6.80;99.90;;;;;;5035183;28;20260;-67
2023/03/30 04:52:17;;;;;;;22.17;11.20;;;6.90;99.90;;;;;;5027289;28;20311;-67
2023/03/30 04:55:38;;;;;;;28.57;12.90;;;6.90;99.90;;;;;;5056602;28;20319;-66
2023/03/30 04:59:07;;;;;;;24.17;12.07;;;6.90;99.90;;;;;;5015692;28;20232;-65
2023/03/30 05:02:15;;;;;;;28.03;12.00;;;7.10;99.90;;;;;;5007648;28;20305;-65
2023/03/30 05:05:26;;;;;;;20.40;11.97;;;7.00;99.90;;;;;;5032752;28;20229;-65
2023/03/30 05:08:51;;;;;;;27.27;12.60;;;7.10;99.90;;;;;;4981260;28;20231;-65
2023/03/30 05:11:59;;;;;;;27.70;11.90;;;7.00;99.90;;;;;;5056228;28;20212;-67
2023/03/30 05:15:21;;;;;;;23.90;11.77;;;7.10;99.90;;;;;;4995917;28;20300;-68
2023/03/30 05:18:40;;;;;;;25.13;13.07;;;7.20;99.90;;;;;;4962108;28;20217;-67
2023/03/30 05:21:55;;;;;;;24.60;12.50;;;7.20;99.90;;;;;;5008053;28;20247;-68
2023/03/30 05:25:11;;;;;;;23.67;12.10;;;7.30;99.90;;;;;;5033280;28;20241;-68
2023/03/30 05:28:11;;;;;;;25.57;12.73;;;7.20;99.90;;;;;;5023470;28;20318;-68
2023/03/30 05:31:10;;;;;;;25.17;13.53;;;7.30;99.90;;;;;;5021048;28;20220;-67
2023/03/30 05:34:22;;;;;;;24.50;13.30;;;7.30;99.90;;;;;;5035795;28;20262;-67
2023/03/30 05:37:31;;;;;;;24.20;13.70;;;7.30;99.90;;;;;;5050299;28;20248;-65
2023/03/30 05:40:46;;;;;;;26.27;12.77;;;7.30;99.90;;;;;;5059305;28;20219;-65
2023/03/30 05:43:51;;;;;;;29.53;13.87;;;7.40;99.90;;;;;;5037710;28;20213;-66
2023/03/30 05:47:16;;;;;;;26.47;13.27;;;7.40;99.90;;;;;;4998727;28;20332;-65
2023/03/30 05:50:35;;;;;;;25.27;13.00;;;7.30;99.90;;;;;;5061230;28;20696;-66
2023/03/30 05:53:26;;;;;;;25.63;12.67;;;7.30;99.90;;;;;;5036463;28;20230;-66
2023/03/30 05:56:32;;;;;;;25.30;13.30;;;7.30;99.90;;;;;;5035885;28;20243;-67
2023/03/30 05:59:40;;;;;;;25.40;13.27;;;7.40;99.90;;;;;;5058315;28;20379;-67
2023/03/30 06:02:50;;;;;;;29.43;13.73;;;7.40;99.90;;;;;;5060172;28;20269;-68
2023/03/30 06:05:42;;;;;;;25.63;12.57;;;7.50;99.90;;;;;;5036707;28;20644;-67
2023/03/30 06:08:32;;;;;;;33.70;14.97;;;7.50;99.90;;;;;;5038704;28;20231;-68
2023/03/30 06:11:24;;;;;;;29.20;14.30;;;7.50;99.90;;;;;;5053470;28;20220;-68
2023/03/30 06:14:27;;;;;;;24.97;13.20;;;7.50;99.90;;;;;;5049392;28;20338;-69
2023/03/30 06:17:41;;;;;;;28.60;13.67;;;7.40;99.90;;;;;;5044306;28;20740;-69
2023/03/30 06:20:32;;;;;;;28.10;13.93;;;7.50;99.90;;;;;;5037072;28;20227;-72
2023/03/30 06:23:22;;;;;;;24.17;13.33;;;7.50;99.90;;;;;;5037014;28;20254;-68
2023/03/30 06:26:13;;;;;;;28.30;13.87;;;7.50;99.90;;;;;;5054175;28;20256;-71
2023/03/30 06:29:03;;;;;;;26.53;13.37;;;7.50;99.90;;;;;;5055660;28;20220;-69
2023/03/30 06:31:52;;;;;;;27.17;13.53;;;7.70;99.90;;;;;;5034075;28;20231;-68
2023/03/30 06:35:15;;;;;;;25.87;13.67;;;7.70;99.90;;;;;;5047487;28;20230;-68
2023/03/30 06:38:06;;;;;;;30.23;14.40;;;7.90;99.90;;;;;;5052799;28;20221;-70
2023/03/30 06:40:56;;;;;;;25.27;13.23;;;8.10;99.90;;;;;;5040149;28;20796;-70
2023/03/30 06:43:47;;;;;;;27.77;13.50;;;8.20;99.90;;;;;;5039227;28;20225;-69
2023/03/30 06:46:41;;;;;;;25.53;13.40;;;8.30;99.90;;;;;;5036499;28;20231;-70
2023/03/30 06:49:31;;;;;;;25.87;14.03;;;8.50;99.90;;;;;;5032155;28;20744;-71
2023/03/30 06:52:48;;;;;;;23.23;13.27;;;8.50;99.90;;;;;;4985944;28;20366;-70
2023/03/30 06:55:44;;;;;;;29.07;13.80;;;8.40;99.90;;;;;;5022751;28;20231;-70
2023/03/30 06:58:40;;;;;;;21.37;12.63;;;8.40;99.90;;;;;;5033388;28;20263;-72
2023/03/30 07:01:29;;;;;;;23.77;13.20;;;8.20;99.90;;;;;;5026099;28;20233;-69
2023/03/30 07:04:39;;;;;;;28.40;15.20;;;8.20;99.90;;;;;;5056698;28;20311;-71
2023/03/30 07:07:42;;;;;;;26.23;13.30;;;8.40;99.90;;;;;;5064232;28;20217;-70
2023/03/30 07:10:32;;;;;;;26.77;13.37;;;8.30;99.90;;;;;;5045502;28;20719;-71
2023/03/30 07:13:25;;;;;;;28.87;13.20;;;8.30;99.90;;;;;;5047619;28;20227;-71
2023/03/30 07:16:14;;;;;;;22.43;13.07;;;8.40;99.90;;;;;;5058082;28;20628;-70
2023/03/30 07:19:03;;;;;;;27.67;13.07;;;8.50;99.90;;;;;;5039864;28;21616;-70
2023/03/30 07:21:52;;;;;;;23.67;13.57;;;8.50;99.90;;;;;;5048188;28;20239;-70
2023/03/30 07:24:45;;;;;;;27.47;13.07;;;8.60;99.90;;;;;;5056901;28;20228;-71
2023/03/30 07:27:35;;;;;;;29.33;13.57;;;8.70;99.90;;;;;;5040285;28;20306;-71
2023/03/30 07:30:26;;;;;;;25.07;13.17;;;8.70;99.90;;;;;;5034348;28;20232;-71
2023/03/30 07:33:22;;;;;;;23.90;12.93;;;8.70;99.90;;;;;;5051297;28;20213;-72
2023/03/30 07:36:11;;;;;;;25.80;13.83;;;8.60;99.90;;;;;;5039853;28;20227;-72
2023/03/30 07:39:00;;;;;;;24.27;13.77;;;8.70;99.90;;;;;;5044970;28;20571;-70
2023/03/30 07:41:55;;;;;;;25.87;13.77;;;8.70;99.90;;;;;;5059930;28;20246;-71
2023/03/30 07:44:44;;;;;;;24.13;13.83;;;8.80;99.90;;;;;;5039160;28;20234;-70
2023/03/30 07:47:39;;;;;;;30.93;14.07;;;9.00;99.90;;;;;;5056378;28;20572;-71
2023/03/30 07:50:28;;;;;;;26.83;14.30;;;9.10;99.90;;;;;;5046190;28;20245;-75
2023/03/30 07:53:18;;;;;;;24.27;14.27;;;9.10;99.90;;;;;;5052739;28;20220;-73
2023/03/30 07:56:10;;;;;;;25.02;13.85;;;9.20;99.90;;;;;;5025663;28;20233;-74
2023/03/30 07:59:06;;;;;;;25.97;14.03;;;9.40;99.90;;;;;;5066956;28;20234;-74
2023/03/30 08:01:57;;;;;;;24.45;13.32;;;9.50;99.90;;;;;;5059939;28;20793;-72
2023/03/30 08:05:10;;;;;;;23.65;12.98;;;9.50;99.90;;;;;;5069740;28;20313;-72
2023/03/30 08:08:28;;;;;;;21.83;13.73;;;9.50;99.90;;;;;;5041383;28;20899;-75
2023/03/30 08:11:21;;;;;;;22.30;13.27;;;9.60;99.90;;;;;;5052108;28;20286;-73
2023/03/30 08:14:10;;;;;;;36.03;13.52;;;10.00;99.90;;;;;;5044203;28;20231;-73
2023/03/30 08:16:59;;;;;;;25.23;13.20;;;10.20;99.90;;;;;;5060057;28;20220;-74
2023/03/30 08:19:48;;;;;;;27.55;13.55;;;10.20;99.90;;;;;;5066264;28;20653;-72
2023/03/30 08:22:41;;;;;;;23.80;12.95;;;10.40;99.90;;;;;;5061838;28;20255;-73
2023/03/30 08:25:31;;;;;;;21.33;12.70;;;10.20;99.90;;;;;;5053139;28;20213;-73
2023/03/30 08:28:21;;;;;;;26.40;12.90;;;10.20;99.90;;;;;;5049302;28;20236;-69
2023/03/30 08:31:10;;;;;;;22.95;13.38;;;10.20;99.90;;;;;;5042532;28;20250;-73
2023/03/30 08:34:00;;;;;;;27.33;13.85;;;10.10;99.90;;;;;;5062622;28;20299;-73
2023/03/30 08:36:48;;;;;;;21.48;13.38;;;10.00;99.90;;;;;;5046616;28;20578;-73
2023/03/30 08:39:42;;;;;;;22.75;13.70;;;10.00;99.90;;;;;;5046605;28;20369;-72
2023/03/30 08:42:54;;;;;;;20.45;13.88;;;9.70;99.90;;;;;;5060656;28;20227;-70
2023/03/30 08:45:44;;;;;;;24.92;13.88;;;9.80;99.90;;;;;;5034585;28;20354;-71
2023/03/30 08:48:36;;;;;;;20.67;12.88;;;9.70;99.90;;;;;;5050281;28;20636;-74
2023/03/30 08:51:30;;;;;;;22.98;12.48;;;9.60;99.90;;;;;;5063269;28;20635;-73
2023/03/30 08:54:24;;;;;;;20.30;13.33;;;9.60;99.90;;;;;;5066134;28;20244;-74
2023/03/30 08:57:22;;;;;;;26.27;14.13;;;9.50;99.90;;;;;;5066317;28;20320;-72
2023/03/30 09:00:21;;;;;;;26.35;12.80;;;9.60;99.90;;;;;;5058391;28;20228;-74
2023/03/30 09:03:18;;;;;;;21.52;12.93;;;9.60;99.90;;;;;;5042634;28;20235;-73
2023/03/30 09:06:14;;;;;;;26.48;13.63;;;9.60;99.90;;;;;;5052992;28;20775;-73
2023/03/30 09:09:04;;;;;;;22.23;13.10;;;9.70;99.90;;;;;;5020607;28;20253;-71
2023/03/30 09:11:57;;;;;;;24.67;13.48;;;9.80;99.90;;;;;;5058584;28;20937;-75
2023/03/30 09:14:52;;;;;;;23.48;13.40;;;9.80;99.90;;;;;;5068352;28;20228;-73
2023/03/30 09:17:46;;;;;;;21.38;13.32;;;9.80;99.90;;;;;;5081134;28;20240;-69
2023/03/30 09:20:38;;;;;;;24.15;12.98;;;9.80;99.90;;;;;;5058644;28;20233;-74
2023/03/30 09:23:30;;;;;;;24.45;13.48;;;9.80;99.90;;;;;;5066151;28;20223;-74
2023/03/30 09:26:27;;;;;;;26.67;13.13;;;10.00;99.90;;;;;;5050257;28;20221;-72
2023/03/30 09:29:19;;;;;;;20.38;12.98;;;10.10;99.90;;;;;;5070924;28;20319;-74
2023/03/30 09:32:15;;;;;;;29.40;13.38;;;10.20;99.90;;;;;;5041869;28;20251;-73
2023/03/30 09:35:13;;;;;;;20.48;12.40;;;10.20;99.90;;;;;;5066946;28;20334;-74
2023/03/30 09:38:03;;;;;;;21.05;12.82;;;10.40;99.90;;;;;;5052752;28;20220;-74
2023/03/30 09:41:06;;;;;;;22.90;13.00;;;10.50;99.90;;;;;;5071158;28;20719;-73
2023/03/30 09:43:58;;;;;;;20.70;12.90;;;10.50;99.90;;;;;;5068002;28;20223;-74
2023/03/30 09:46:48;;;;;;;24.63;13.57;;;10.60;99.90;;;;;;5046028;28;20224;-73
2023/03/30 09:49:40;;;;;;;22.75;13.38;;;10.40;99.90;;;;;;5061569;28;20248;-74
2023/03/30 09:52:35;;;;;;;29.58;14.05;;;10.50;99.90;;;;;;5060452;28;20696;-73
2023/03/30 09:55:27;;;;;;;26.52;13.90;;;10.70;99.90;;;;;;5042654;28;20696;-73
2023/03/30 09:58:19;;;;;;;19.88;12.45;;;10.80;99.90;;;;;;5062532;28;20224;-73
2023/03/30 10:01:11;;;;;;;19.35;13.35;;;11.00;99.90;;;;;;5029703;28;20891;-73
2023/03/30 10:04:10;;;;;;;19.25;13.18;;;11.30;99.90;;;;;;5025600;28;20843;-73
2023/03/30 10:07:01;;;;;;;22.85;14.02;;;11.50;99.90;;;;;;5046028;28;20227;-71
2023/03/30 10:10:26;;;;;;;20.63;13.65;;;11.90;99.90;;;;;;5045539;28;20349;-73
2023/03/30 10:13:19;;;;;;;22.67;12.85;;;12.10;99.90;;;;;;5067987;28;20318;-74
2023/03/30 10:16:12;;;;;;;21.50;13.52;;;12.20;99.90;;;;;;5048258;28;20769;-73
2023/03/30 10:19:04;;;;;;;22.98;12.98;;;12.50;99.90;;;;;;5051482;28;20302;-73
2023/03/30 10:21:56;;;;;;;20.30;11.77;;;12.60;99.90;;;;;;5051195;28;20240;-73
2023/03/30 10:24:53;;;;;;;18.50;11.32;;;12.80;99.90;;;;;;5055045;28;20224;-71
2023/03/30 10:27:44;;;;;;;15.88;10.52;;;12.90;99.90;;;;;;5038528;28;20229;-73
2023/03/30 10:30:33;;;;;;;14.70;10.57;;;13.10;99.90;;;;;;5048099;28;20247;-72
2023/03/30 10:33:23;;;;;;;16.73;10.52;;;13.30;99.90;;;;;;5060014;28;20224;-74
2023/03/30 10:36:15;;;;;;;21.33;11.05;;;13.30;99.90;;;;;;5050922;28;20284;-73
2023/03/30 10:39:10;;;;;;;16.35;11.00;;;13.40;99.90;;;;;;5039057;28;20233;-71
2023/03/30 10:42:03;;;;;;;18.77;11.07;;;13.10;99.90;;;;;;5048036;28;20221;-72
2023/03/30 10:44:54;;;;;;;17.60;10.23;;;13.10;99.90;;;;;;5051096;28;20590;-71
2023/03/30 10:47:59;;;;;;;15.95;10.95;;;13.10;99.90;;;;;;5039004;28;20728;-72
2023/03/30 10:50:56;;;;;;;13.93;10.65;;;13.40;99.90;;;;;;5043704;28;20258;-72
2023/03/30 10:53:52;;;;;;;20.50;11.73;;;13.50;99.90;;;;;;5047443;28;20278;-72
2023/03/30 10:56:46;;;;;;;18.08;11.50;;;13.60;99.90;;;;;;5056036;28;20220;-73
2023/03/30 10:59:57;;;;;;;18.05;10.95;;;13.90;99.90;;;;;;5055285;28;20233;-74
2023/03/30 11:02:57;;;;;;;17.90;11.23;;;14.10;99.90;;;;;;5052287;28;20232;-71
2023/03/30 11:05:49;;;;;;;16.50;10.55;;;13.90;99.90;;;;;;5061588;28;20846;-72
2023/03/30 11:08:42;;;;;;;14.85;10.18;;;14.10;99.90;;;;;;5053497;28;20765;-73
2023/03/30 11:11:35;;;;;;;16.48;10.68;;;14.20;99.90;;;;;;5039528;28;20285;-72
2023/03/30 11:14:28;;;;;;;30.63;11.75;;;14.20;99.90;;;;;;5041246;28;20220;-72
2023/03/30 11:17:23;;;;;;;16.63;10.95;;;14.30;99.90;;;;;;5056114;28;20681;-72
2023/03/30 11:20:22;;;;;;;16.30;10.63;;;14.10;99.90;;;;;;5038319;28;20217;-73
2023/03/30 11:23:18;;;;;;;21.92;10.63;;;14.00;99.90;;;;;;5056091;28;20220;-76
2023/03/30 11:26:11;;;;;;;17.83;10.20;;;14.00;99.90;;;;;;5040693;28;20234;-74
2023/03/30 11:29:14;;;;;;;16.05;9.60;;;14.20;99.90;;;;;;5036746;28;20692;-72
2023/03/30 11:32:26;;;;;;;16.13;9.52;;;14.20;99.90;;;;;;5036246;28;21175;-74
2023/03/30 11:35:19;;;;;;;16.15;10.73;;;14.20;99.90;;;;;;5034265;28;20224;-74
2023/03/30 11:38:14;;;;;;;18.77;10.52;;;14.00;99.90;;;;;;5046840;28;20324;-73
2023/03/30 11:41:11;;;;;;;15.00;10.50;;;14.30;99.90;;;;;;5054388;28;20241;-73
2023/03/30 11:44:00;;;;;;;15.20;10.90;;;14.40;99.90;;;;;;5049922;28;20624;-73
2023/03/30 11:47:00;;;;;;;17.63;10.93;;;14.40;99.90;;;;;;5062150;28;20220;-72
2023/03/30 11:50:00;;;;;;;15.52;10.95;;;14.30;99.90;;;;;;5060726;28;20247;-74
2023/03/30 11:52:59;;;;;;;18.85;10.85;;;14.60;99.90;;;;;;5048494;28;20956;-74
2023/03/30 11:55:58;;;;;;;18.67;10.95;;;14.70;99.90;;;;;;5055401;28;20224;-74
2023/03/30 11:59:04;;;;;;;14.68;10.20;;;14.40;99.90;;;;;;5059172;28;20754;-74
2023/03/30 12:02:12;;;;;;;14.73;10.32;;;14.40;99.90;;;;;;5036101;28;20228;-74
2023/03/30 12:05:08;;;;;;;14.88;10.45;;;14.40;99.90;;;;;;5049041;28;20231;-74
2023/03/30 12:08:07;;;;;;;16.92;10.65;;;14.70;99.90;;;;;;5049140;28;20232;-74
2023/03/30 12:11:06;;;;;;;14.82;10.00;;;14.70;99.90;;;;;;5040562;28;20216;-75
2023/03/30 12:13:55;;;;;;;15.27;9.90;;;14.50;99.90;;;;;;5041451;28;20216;-73
2023/03/30 12:16:47;;;;;;;17.08;10.10;;;14.10;99.90;;;;;;5036792;28;20700;-74
2023/03/30 12:19:43;;;;;;;15.80;10.35;;;14.20;99.90;;;;;;5052845;28;20339;-74
2023/03/30 12:22:51;;;;;;;15.77;9.88;;;14.30;99.90;;;;;;5040291;28;21029;-72
2023/03/30 12:25:54;;;;;;;13.93;9.57;;;14.40;99.90;;;;;;5045524;28;20289;-74
2023/03/30 12:28:49;;;;;;;13.65;9.52;;;14.60;99.90;;;;;;5052083;28;20239;-74
2023/03/30 12:32:18;;;;;;;16.05;9.18;;;14.60;99.90;;;;;;5038187;28;20264;-74
2023/03/30 12:35:41;;;;;;;14.25;9.10;;;14.80;99.90;;;;;;5047163;28;20220;-74
2023/03/30 12:38:42;;;;;;;14.00;8.93;;;14.70;99.90;;;;;;5055666;28;20343;-76
2023/03/30 12:41:43;;;;;;;14.15;8.75;;;14.60;99.90;;;;;;5034459;28;20221;-73
2023/03/30 12:44:52;;;;;;;13.50;9.07;;;14.40;99.90;;;;;;5048261;28;20235;-74
2023/03/30 12:47:51;;;;;;;12.98;8.77;;;14.50;99.90;;;;;;5042830;28;20278;-74
2023/03/30 12:50:50;;;;;;;13.48;8.52;;;14.60;99.90;;;;;;5054182;28;20232;-71
2023/03/30 12:54:07;;;;;;;17.92;9.20;;;14.60;99.90;;;;;;5040798;28;20237;-75
2023/03/30 12:57:02;;;;;;;16.75;8.93;;;14.50;99.90;;;;;;5055024;28;20248;-75
2023/03/30 13:00:28;;;;;;;14.27;8.95;;;14.30;99.90;;;;;;5058341;28;20346;-73
2023/03/30 13:03:29;;;;;;;17.25;8.63;;;14.30;99.90;;;;;;5058347;28;20220;-75
2023/03/30 13:06:31;;;;;;;16.55;8.65;;;14.30;99.90;;;;;;5045113;28;20274;-73
2023/03/30 13:09:52;;;;;;;15.43;7.97;;;14.20;99.90;;;;;;5049426;28;20219;-73
2023/03/30 13:12:42;;;;;;;10.68;7.45;;;14.00;99.90;;;;;;5061571;28;20371;-73
2023/03/30 13:15:35;;;;;;;14.43;8.48;;;13.90;99.90;;;;;;5061345;28;20269;-73
2023/03/30 13:18:33;;;;;;;12.02;7.78;;;14.00;99.90;;;;;;5047299;28;20311;-73
2023/03/30 13:21:23;;;;;;;11.90;7.63;;;13.90;99.90;;;;;;5045285;28;20232;-74
2023/03/30 13:24:27;;;;;;;19.40;8.38;;;13.90;99.90;;;;;;5048858;28;20277;-74
2023/03/30 13:27:27;;;;;;;14.98;7.95;;;13.90;99.90;;;;;;5045471;28;20274;-75
2023/03/30 13:30:17;;;;;;;14.75;7.95;;;13.90;99.90;;;;;;5053863;28;20230;-76
2023/03/30 13:33:15;;;;;;;12.93;8.18;;;13.90;99.90;;;;;;5033110;28;20224;-76
2023/03/30 13:36:12;;;;;;;16.65;9.30;;;13.90;99.90;;;;;;5029263;28;20231;-73
2023/03/30 13:39:07;;;;;;;13.85;9.00;;;13.80;99.90;;;;;;5045864;28;20302;-75
2023/03/30 13:42:07;;;;;;;24.35;9.43;;;13.80;99.90;;;;;;5040732;28;20239;-74
2023/03/30 13:45:05;;;;;;;17.30;8.90;;;13.80;99.90;;;;;;5053314;28;20236;-74
2023/03/30 13:48:02;;;;;;;20.45;9.32;;;13.80;99.90;;;;;;5039019;28;20217;-75
2023/03/30 13:50:57;;;;;;;13.73;8.73;;;13.90;99.90;;;;;;5043639;28;20236;-73
2023/03/30 13:53:51;;;;;;;14.80;8.80;;;13.80;99.90;;;;;;5047413;28;20216;-73
2023/03/30 13:56:48;;;;;;;17.73;8.85;;;13.90;99.90;;;;;;5048506;28;20251;-73
2023/03/30 13:59:41;;;;;;;15.07;8.73;;;13.90;99.90;;;;;;5063490;28;20646;-73
2023/03/30 14:02:32;;;;;;;13.40;8.50;;;14.00;99.90;;;;;;5050539;28;20711;-73
2023/03/30 14:05:25;;;;;;;13.07;8.23;;;14.00;99.90;;;;;;5063088;28;20227;-73
2023/03/30 14:08:16;;;;;;;17.15;7.88;;;14.00;99.90;;;;;;5063026;28;20228;-74
2023/03/30 14:11:12;;;;;;;15.27;8.07;;;14.00;99.90;;;;;;5037273;28;20687;-73
2023/03/30 14:14:03;;;;;;;17.63;8.50;;;14.00;99.90;;;;;;5040422;28;20233;-74
2023/03/30 14:16:52;;;;;;;16.42;8.13;;;14.00;99.90;;;;;;5029999;28;20315;-72
2023/03/30 14:19:51;;;;;;;10.23;6.90;;;14.00;99.90;;;;;;5042341;28;20234;-74
2023/03/30 14:22:45;;;;;;;10.23;5.90;;;14.00;99.90;;;;;;5041620;28;20688;-73
2023/03/30 14:25:42;;;;;;;11.23;5.88;;;14.00;99.90;;;;;;5037009;28;20231;-72
2023/03/30 14:28:34;;;;;;;11.25;5.88;;;14.00;99.90;;;;;;5057322;28;20224;-74
2023/03/30 14:31:25;;;;;;;7.80;5.70;;;14.00;99.90;;;;;;5072775;28;20239;-74
2023/03/30 14:34:26;;;;;;;8.45;5.82;;;14.00;99.90;;;;;;5059327;28;20224;-74
2023/03/30 14:37:17;;;;;;;9.30;5.57;;;13.90;99.90;;;;;;5063354;28;20712;-74
2023/03/30 14:40:15;;;;;;;9.65;4.85;;;13.90;99.90;;;;;;5055866;28;20233;-75
2023/03/30 14:43:04;;;;;;;11.95;5.47;;;13.80;99.90;;;;;;5059850;28;20649;-75
2023/03/30 14:45:55;;;;;;;9.90;5.43;;;13.80;99.90;;;;;;5056193;28;20231;-74
2023/03/30 14:48:47;;;;;;;6.97;4.50;;;13.80;99.90;;;;;;5034165;28;20208;-74
2023/03/30 14:51:41;;;;;;;8.02;5.07;;;13.70;99.90;;;;;;5061274;28;20649;-73
2023/03/30 14:54:32;;;;;;;7.97;5.00;;;13.60;99.90;;;;;;5055487;28;20588;-75
2023/03/30 14:57:22;;;;;;;10.38;5.35;;;13.70;99.90;;;;;;5054746;28;20231;-71
2023/03/30 15:00:19;;;;;;;7.05;5.22;;;13.70;99.90;;;;;;5042494;28;20236;-73
2023/03/30 15:03:10;;;;;;;11.48;5.38;;;13.60;99.90;;;;;;5033456;28;20584;-74
2023/03/30 15:06:19;;;;;;;10.95;5.55;;;13.60;99.90;;;;;;5041197;28;20255;-72
2023/03/30 15:09:16;;;;;;;16.40;6.18;;;13.50;99.90;;;;;;5052284;28;20617;-73
2023/03/30 15:12:07;;;;;;;12.95;6.35;;;13.50;99.90;;;;;;5051578;28;20263;-73